GRL413 BGGH-BGBW
Flight info
| Callsign | GRL413 |
|---|---|
| Flight time | N/A |
| Altitude | 25000 |
| Route | NUKRI2A NUKRI DCT ELLAL DCT KITAP DCT JUVEL DCT ADMIX |
| Aircraft | DH8B/M-SDFGR/S |
Departure
| Time | 2026-04-30 22:00 |
|---|---|
| Airport | Nuuk International Airport (BGGH) |
Arrival
| Time | N/A |
|---|---|
| Airport | Narsarsuaq Airport (BGBW) |
| Time | Latitude | Longitude | Altitude | Speed | Heading |
|---|---|---|---|---|---|
| 2026-04-30 21:25 | 64.19108 | -51.67326 | 276 ft | 0 kts | 170° |
| 2026-04-30 21:44 | 64.19109 | -51.67326 | 276 ft | 0 kts | 170° |
| 2026-04-30 21:55 | 64.19103 | -51.67331 | 276 ft | 4 kts | 213° |
| 2026-04-30 21:55 | 64.19088 | -51.67402 | 276 ft | 0 kts | 245° |
| 2026-04-30 21:56 | 64.19084 | -51.67418 | 276 ft | 5 kts | 242° |
| 2026-04-30 21:56 | 64.19062 | -51.67535 | 276 ft | 8 kts | 259° |
| 2026-04-30 21:56 | 64.19076 | -51.67681 | 276 ft | 9 kts | 289° |
| 2026-04-30 21:56 | 64.19067 | -51.67824 | 276 ft | 15 kts | 209° |
| 2026-04-30 21:57 | 64.19030 | -51.67856 | 276 ft | 2 kts | 197° |
| 2026-04-30 21:57 | 64.18980 | -51.67895 | 276 ft | 9 kts | 202° |
| 2026-04-30 21:57 | 64.18913 | -51.68047 | 275 ft | 19 kts | 207° |
| 2026-04-30 21:57 | 64.18752 | -51.68156 | 270 ft | 29 kts | 200° |
| 2026-04-30 21:58 | 64.18571 | -51.68292 | 266 ft | 23 kts | 198° |
| 2026-04-30 21:58 | 64.18444 | -51.68385 | 262 ft | 19 kts | 199° |
| 2026-04-30 21:58 | 64.18310 | -51.68486 | 255 ft | 16 kts | 194° |
| 2026-04-30 21:58 | 64.18215 | -51.68505 | 253 ft | 12 kts | 180° |
| 2026-04-30 21:59 | 64.18186 | -51.68585 | 250 ft | 3 kts | 347° |
| 2026-04-30 21:59 | 64.18192 | -51.68585 | 250 ft | 0 kts | 12° |
| 2026-04-30 22:00 | 64.18206 | -51.68576 | 251 ft | 13 kts | 18° |
| 2026-04-30 22:00 | 64.19627 | -51.67576 | 690 ft | 151 kts | 15° |
| 2026-04-30 22:00 | 64.20733 | -51.67102 | 1159 ft | 174 kts | 1° |
| 2026-04-30 22:01 | 64.21915 | -51.68056 | 1615 ft | 192 kts | 324° |
| 2026-04-30 22:01 | 64.22682 | -51.70657 | 2095 ft | 206 kts | 288° |
| 2026-04-30 22:01 | 64.22702 | -51.73917 | 2580 ft | 212 kts | 256° |
| 2026-04-30 22:01 | 64.21979 | -51.76851 | 3095 ft | 215 kts | 225° |
| 2026-04-30 22:02 | 64.20678 | -51.78518 | 3581 ft | 218 kts | 194° |
| 2026-04-30 22:02 | 64.19169 | -51.78387 | 4096 ft | 221 kts | 162° |
| 2026-04-30 22:02 | 64.17849 | -51.76609 | 4615 ft | 221 kts | 143° |
| 2026-04-30 22:02 | 64.16491 | -51.75082 | 5167 ft | 220 kts | 173° |
| 2026-04-30 22:03 | 64.15026 | -51.75518 | 5707 ft | 210 kts | 198° |
| 2026-04-30 22:03 | 64.13619 | -51.76280 | 6193 ft | 207 kts | 187° |
| 2026-04-30 22:03 | 64.12204 | -51.76331 | 6660 ft | 206 kts | 174° |
| 2026-04-30 22:03 | 64.10785 | -51.75919 | 7144 ft | 205 kts | 175° |
| 2026-04-30 22:04 | 64.09364 | -51.75643 | 7628 ft | 205 kts | 176° |
| 2026-04-30 22:04 | 64.07936 | -51.75459 | 8108 ft | 206 kts | 177° |
| 2026-04-30 22:04 | 64.05057 | -51.75012 | 9075 ft | 209 kts | 177° |
| 2026-04-30 22:05 | 64.03599 | -51.74819 | 9561 ft | 210 kts | 177° |
| 2026-04-30 22:05 | 64.02135 | -51.74584 | 10051 ft | 211 kts | 177° |
| 2026-04-30 22:05 | 64.00663 | -51.74373 | 10527 ft | 213 kts | 178° |
| 2026-04-30 22:05 | 63.99195 | -51.74162 | 10991 ft | 215 kts | 178° |
| 2026-04-30 22:06 | 63.97703 | -51.73792 | 11444 ft | 218 kts | 167° |
| 2026-04-30 22:06 | 63.95518 | -51.69076 | 12343 ft | 228 kts | 121° |
| 2026-04-30 22:06 | 63.94650 | -51.66085 | 12837 ft | 227 kts | 133° |
| 2026-04-30 22:07 | 63.93567 | -51.63481 | 13323 ft | 227 kts | 138° |
| 2026-04-30 22:07 | 63.92484 | -51.60838 | 13798 ft | 230 kts | 134° |
| 2026-04-30 22:07 | 63.91445 | -51.58047 | 14281 ft | 232 kts | 134° |
| 2026-04-30 22:07 | 63.90389 | -51.55250 | 14763 ft | 234 kts | 136° |
| 2026-04-30 22:08 | 63.89309 | -51.52530 | 15247 ft | 236 kts | 136° |
| 2026-04-30 22:08 | 63.88228 | -51.49704 | 15730 ft | 238 kts | 135° |
| 2026-04-30 22:08 | 63.87131 | -51.46870 | 16216 ft | 240 kts | 136° |
| 2026-04-30 22:08 | 63.86015 | -51.44030 | 16698 ft | 242 kts | 136° |
| 2026-04-30 22:09 | 63.84905 | -51.41137 | 17182 ft | 244 kts | 136° |
| 2026-04-30 22:09 | 63.83771 | -51.38256 | 17668 ft | 246 kts | 137° |
| 2026-04-30 22:09 | 63.82634 | -51.35332 | 18150 ft | 248 kts | 136° |
| 2026-04-30 22:09 | 63.81487 | -51.32379 | 18633 ft | 250 kts | 137° |
| 2026-04-30 22:10 | 63.80331 | -51.29490 | 19111 ft | 252 kts | 139° |
| 2026-04-30 22:10 | 63.79108 | -51.26634 | 19593 ft | 254 kts | 140° |
| 2026-04-30 22:10 | 63.77887 | -51.23721 | 20075 ft | 257 kts | 139° |
| 2026-04-30 22:10 | 63.76666 | -51.20753 | 20566 ft | 258 kts | 140° |
| 2026-04-30 22:11 | 63.74157 | -51.14822 | 21525 ft | 265 kts | 140° |
| 2026-04-30 22:11 | 63.72889 | -51.11792 | 22013 ft | 266 kts | 141° |
| 2026-04-30 22:11 | 63.71599 | -51.08773 | 22498 ft | 268 kts | 141° |
| 2026-04-30 22:12 | 63.70312 | -51.05695 | 22981 ft | 271 kts | 141° |
| 2026-04-30 22:12 | 63.69019 | -51.02648 | 23463 ft | 274 kts | 142° |
| 2026-04-30 22:12 | 63.67695 | -50.99529 | 23933 ft | 277 kts | 141° |
| 2026-04-30 22:12 | 63.66363 | -50.96372 | 24428 ft | 279 kts | 142° |
| 2026-04-30 22:13 | 63.65012 | -50.93207 | 24879 ft | 283 kts | 142° |
| 2026-04-30 22:13 | 63.63606 | -50.89930 | 24977 ft | 299 kts | 142° |
| 2026-04-30 22:13 | 63.62137 | -50.86479 | 25001 ft | 311 kts | 141° |
| 2026-04-30 22:13 | 63.60613 | -50.82906 | 25006 ft | 321 kts | 141° |
| 2026-04-30 22:14 | 63.59041 | -50.79254 | 25013 ft | 329 kts | 141° |
| 2026-04-30 22:14 | 63.57438 | -50.75516 | 25016 ft | 335 kts | 141° |
| 2026-04-30 22:14 | 63.55807 | -50.71721 | 25016 ft | 340 kts | 141° |
| 2026-04-30 22:14 | 63.54185 | -50.67947 | 25016 ft | 342 kts | 141° |
| 2026-04-30 22:15 | 63.52525 | -50.64096 | 25006 ft | 344 kts | 141° |
| 2026-04-30 22:15 | 63.50855 | -50.60242 | 25011 ft | 346 kts | 141° |
| 2026-04-30 22:15 | 63.49176 | -50.56371 | 25001 ft | 347 kts | 141° |
| 2026-04-30 22:15 | 63.47494 | -50.52505 | 25001 ft | 347 kts | 141° |
| 2026-04-30 22:16 | 63.45807 | -50.48628 | 24992 ft | 349 kts | 141° |
| 2026-04-30 22:16 | 63.44112 | -50.44743 | 24990 ft | 348 kts | 141° |
| 2026-04-30 22:17 | 63.39125 | -50.33289 | 24998 ft | 342 kts | 141° |
| 2026-04-30 22:17 | 63.37467 | -50.29497 | 24984 ft | 341 kts | 141° |
| 2026-04-30 22:17 | 63.34157 | -50.21932 | 24982 ft | 340 kts | 141° |
| 2026-04-30 22:18 | 63.32506 | -50.18161 | 24983 ft | 340 kts | 141° |
| 2026-04-30 22:18 | 63.29206 | -50.10643 | 24988 ft | 339 kts | 141° |
| 2026-04-30 22:19 | 63.25924 | -50.03193 | 24983 ft | 340 kts | 142° |
| 2026-04-30 22:19 | 63.24263 | -49.99456 | 24981 ft | 340 kts | 142° |
| 2026-04-30 22:19 | 63.20934 | -49.91973 | 24982 ft | 340 kts | 142° |
| 2026-04-30 22:20 | 63.19276 | -49.88243 | 24977 ft | 340 kts | 142° |
| 2026-04-30 22:20 | 63.15946 | -49.80814 | 24972 ft | 340 kts | 142° |
| 2026-04-30 22:20 | 63.14287 | -49.77094 | 24973 ft | 339 kts | 142° |
| 2026-04-30 22:21 | 63.12626 | -49.73394 | 24973 ft | 339 kts | 143° |
| 2026-04-30 22:21 | 63.10957 | -49.69707 | 24971 ft | 339 kts | 143° |
| 2026-04-30 22:21 | 63.09315 | -49.66047 | 24970 ft | 340 kts | 142° |
| 2026-04-30 22:21 | 63.07650 | -49.62347 | 24972 ft | 340 kts | 143° |
| 2026-04-30 22:22 | 63.05977 | -49.58665 | 24982 ft | 340 kts | 143° |
| 2026-04-30 22:22 | 63.04309 | -49.54971 | 24982 ft | 340 kts | 143° |
| 2026-04-30 22:22 | 63.02637 | -49.51276 | 24980 ft | 340 kts | 143° |
| 2026-04-30 22:22 | 63.00964 | -49.47608 | 24980 ft | 339 kts | 143° |
| 2026-04-30 22:23 | 62.99296 | -49.43943 | 24979 ft | 339 kts | 143° |
| 2026-04-30 22:23 | 62.97628 | -49.40272 | 24980 ft | 339 kts | 143° |
| 2026-04-30 22:23 | 62.95973 | -49.36673 | 24980 ft | 339 kts | 143° |
| 2026-04-30 22:23 | 62.94300 | -49.33008 | 24979 ft | 340 kts | 143° |
| 2026-04-30 22:24 | 62.92627 | -49.29340 | 24975 ft | 340 kts | 143° |
| 2026-04-30 22:24 | 62.90943 | -49.25702 | 24981 ft | 340 kts | 143° |
| 2026-04-30 22:24 | 62.89265 | -49.22042 | 24981 ft | 341 kts | 143° |
| 2026-04-30 22:24 | 62.87586 | -49.18380 | 24980 ft | 340 kts | 144° |
| 2026-04-30 22:25 | 62.85900 | -49.14753 | 24996 ft | 340 kts | 144° |
| 2026-04-30 22:25 | 62.84219 | -49.11106 | 24985 ft | 340 kts | 143° |
| 2026-04-30 22:25 | 62.82540 | -49.07462 | 24994 ft | 340 kts | 144° |
| 2026-04-30 22:25 | 62.80852 | -49.03855 | 24985 ft | 340 kts | 144° |
| 2026-04-30 22:26 | 62.77513 | -48.96644 | 24993 ft | 339 kts | 144° |
| 2026-04-30 22:26 | 62.75824 | -48.93047 | 24985 ft | 340 kts | 144° |
| 2026-04-30 22:26 | 62.74140 | -48.89428 | 24991 ft | 340 kts | 144° |
| 2026-04-30 22:27 | 62.72455 | -48.85816 | 24992 ft | 340 kts | 145° |
| 2026-04-30 22:27 | 62.70759 | -48.82226 | 24995 ft | 339 kts | 145° |
| 2026-04-30 22:27 | 62.67389 | -48.75018 | 24997 ft | 339 kts | 145° |
| 2026-04-30 22:28 | 62.64030 | -48.67907 | 24998 ft | 340 kts | 145° |
| 2026-04-30 22:28 | 62.62342 | -48.64323 | 25000 ft | 339 kts | 146° |
| 2026-04-30 22:29 | 62.57268 | -48.53621 | 25004 ft | 339 kts | 146° |
| 2026-04-30 22:29 | 62.55573 | -48.50086 | 24997 ft | 339 kts | 146° |
| 2026-04-30 22:30 | 62.48830 | -48.35967 | 24996 ft | 338 kts | 147° |
| 2026-04-30 22:31 | 62.43768 | -48.25428 | 25016 ft | 337 kts | 147° |
| 2026-04-30 22:32 | 62.38701 | -48.14927 | 25029 ft | 337 kts | 147° |
| 2026-04-30 22:32 | 62.35335 | -48.08001 | 25029 ft | 336 kts | 148° |
| 2026-04-30 22:33 | 62.30147 | -47.97395 | 23974 ft | 351 kts | 148° |
| 2026-04-30 22:33 | 62.26608 | -47.90248 | 22622 ft | 347 kts | 148° |
| 2026-04-30 22:34 | 62.21474 | -47.79778 | 20157 ft | 329 kts | 147° |
| 2026-04-30 22:35 | 62.18211 | -47.73178 | 18278 ft | 321 kts | 146° |
| 2026-04-30 22:36 | 62.12060 | -47.60741 | 14425 ft | 288 kts | 146° |
| 2026-04-30 22:36 | 62.10622 | -47.57837 | 13513 ft | 280 kts | 146° |
| 2026-04-30 22:37 | 62.06571 | -47.49684 | 11000 ft | 255 kts | 145° |
| 2026-04-30 22:37 | 62.05342 | -47.47204 | 10437 ft | 238 kts | 144° |
| 2026-04-30 22:37 | 62.03075 | -47.42568 | 9315 ft | 215 kts | 142° |
| 2026-04-30 22:38 | 62.00965 | -47.38368 | 8161 ft | 202 kts | 141° |
| 2026-04-30 22:38 | 61.98694 | -47.35062 | 6885 ft | 196 kts | 164° |
| 2026-04-30 22:39 | 61.97451 | -47.34053 | 6474 ft | 187 kts | 155° |
| 2026-04-30 22:39 | 61.94291 | -47.29698 | 6517 ft | 180 kts | 147° |
| 2026-04-30 22:40 | 61.91274 | -47.25323 | 7291 ft | 182 kts | 152° |
| 2026-04-30 22:41 | 61.88342 | -47.19033 | 7071 ft | 218 kts | 100° |
| 2026-04-30 22:41 | 61.88059 | -47.12730 | 7298 ft | 218 kts | 113° |
| 2026-04-30 22:42 | 61.83653 | -47.04199 | 7369 ft | 223 kts | 139° |
| 2026-04-30 22:43 | 61.81382 | -46.99685 | 7372 ft | 225 kts | 142° |
| 2026-04-30 22:43 | 61.79090 | -46.95196 | 7371 ft | 227 kts | 141° |
| 2026-04-30 22:44 | 61.76762 | -46.90680 | 7373 ft | 228 kts | 141° |
| 2026-04-30 22:45 | 61.72100 | -46.81615 | 7373 ft | 228 kts | 141° |
| 2026-04-30 22:45 | 61.69758 | -46.77078 | 7371 ft | 229 kts | 141° |
| 2026-04-30 22:46 | 61.67432 | -46.72583 | 7371 ft | 228 kts | 142° |
| 2026-04-30 22:47 | 61.62750 | -46.63553 | 7372 ft | 228 kts | 142° |
| 2026-04-30 22:47 | 61.60399 | -46.59040 | 7370 ft | 229 kts | 141° |
| 2026-04-30 22:48 | 61.58053 | -46.54546 | 7370 ft | 231 kts | 142° |
| 2026-04-30 22:49 | 61.54510 | -46.47777 | 7367 ft | 229 kts | 142° |
| 2026-04-30 22:49 | 61.50942 | -46.40979 | 7363 ft | 232 kts | 142° |
| 2026-04-30 22:50 | 61.46187 | -46.31938 | 7362 ft | 231 kts | 142° |
| 2026-04-30 22:51 | 61.43799 | -46.27429 | 7362 ft | 232 kts | 142° |
| 2026-04-30 22:51 | 61.41369 | -46.23025 | 7367 ft | 230 kts | 146° |
| 2026-04-30 22:52 | 61.40144 | -46.20853 | 7364 ft | 232 kts | 142° |
| 2026-04-30 22:52 | 61.37651 | -46.16758 | 7372 ft | 227 kts | 155° |
| 2026-04-30 22:53 | 61.34817 | -46.13971 | 7091 ft | 230 kts | 153° |
| 2026-04-30 22:53 | 61.32060 | -46.10455 | 6744 ft | 226 kts | 158° |
| 2026-04-30 22:53 | 61.30652 | -46.09149 | 6731 ft | 217 kts | 169° |
| 2026-04-30 22:54 | 61.27957 | -46.06472 | 6728 ft | 217 kts | 148° |
| 2026-04-30 22:55 | 61.24885 | -45.99525 | 6699 ft | 220 kts | 137° |
| 2026-04-30 22:55 | 61.22739 | -45.95058 | 5927 ft | 215 kts | 141° |
| 2026-04-30 22:56 | 61.20595 | -45.90891 | 5032 ft | 208 kts | 143° |
| 2026-04-30 22:56 | 61.17892 | -45.84097 | 3985 ft | 206 kts | 123° |
| 2026-04-30 22:57 | 61.16756 | -45.78696 | 3743 ft | 204 kts | 116° |
| 2026-04-30 22:57 | 61.15497 | -45.73345 | 3324 ft | 206 kts | 120° |
| 2026-04-30 22:58 | 61.14149 | -45.68182 | 3005 ft | 202 kts | 123° |
| 2026-04-30 22:59 | 61.12199 | -45.60528 | 2475 ft | 197 kts | 119° |
| 2026-04-30 22:59 | 61.11432 | -45.52568 | 1981 ft | 178 kts | 86° |